Date,TemperatureHighF,TemperatureAvgF,TemperatureLowF,DewpointHighF,DewpointAvgF,DewpointLowF,HumidityHigh,HumidityAvg,HumidityLow,PressureMaxIn,PressureMinIn,WindSpeedMaxMPH,WindSpeedAvgMPH,GustSpeedMaxMPH,PrecipitationSumIn
2013-1-1,80.6,79.3,78.3,70.4,68.0,64.0,74,68,59,30.11,30.01,22,14,28,0.00
2013-1-2,80.6,78.9,77.6,72.0,67.7,62.3,80,69,59,30.08,30.00,22,13,28,0.00
2013-1-3,80.6,79.1,75.7,72.5,71.2,69.0,88,77,70,30.14,30.02,26,15,30,0.00
2013-1-4,82.2,79.8,77.2,73.1,71.5,68.7,85,76,71,30.19,30.08,26,14,30,0.00
2013-1-5,81.6,79.7,77.5,72.9,70.8,68.9,79,74,69,30.20,30.10,25,12,32,0.00
2013-1-6,81.0,78.6,73.1,73.0,71.2,69.1,94,78,71,30.15,30.07,36,17,46,0.00
2013-1-7,80.8,79.6,75.4,72.7,70.0,67.0,88,73,66,30.15,30.05,32,22,37,0.00
2013-1-8,80.7,79.0,73.4,73.4,71.3,68.8,91,77,68,30.18,30.05,45,19,51,0.02
2013-1-9,81.1,79.5,77.8,72.2,68.9,64.1,81,70,60,30.21,30.10,29,15,36,0.00
2013-1-10,80.3,78.3,76.6,71.5,70.1,66.7,82,76,70,30.16,30.06,30,14,35,0.00
2013-1-11,80.2,78.0,72.7,70.0,67.7,65.0,86,71,61,30.08,29.98,25,12,30,0.02
2013-1-12,80.8,77.6,73.6,70.5,68.5,66.1,85,74,66,30.02,29.94,16,9,29,0.07
2013-1-13,80.4,77.7,76.2,68.3,64.0,59.6,75,63,51,30.03,29.95,17,9,20,0.00
2013-1-14,79.9,77.2,73.7,68.2,64.4,61.6,82,65,56,30.07,29.99,14,8,22,0.00
2013-1-15,80.1,77.7,73.4,68.7,66.2,62.9,83,68,58,30.04,29.98,22,11,27,0.00
2013-1-16,80.0,77.3,74.5,69.0,66.4,63.4,79,69,59,30.07,29.97,23,11,30,0.00
2013-1-17,80.8,77.3,72.5,71.4,68.6,64.0,91,75,62,30.09,29.99,24,12,35,0.01
2013-1-18,81.0,78.2,72.8,71.5,69.3,66.9,91,75,67,30.11,30.01,28,10,36,0.00
2013-1-19,80.1,77.8,72.0,71.3,70.0,67.9,92,77,68,30.11,30.00,21,11,25,0.00
2013-1-20,79.9,78.4,77.2,71.6,69.6,67.6,81,75,68,30.09,29.98,21,12,26,0.00
2013-1-21,79.7,78.6,75.7,72.3,70.9,68.4,85,77,73,30.07,29.99,21,12,26,0.00
2013-1-22,80.7,79.1,73.9,73.5,71.9,66.7,90,79,70,30.12,30.02,24,14,27,0.00
2013-1-23,80.3,79.3,77.6,73.1,71.2,67.4,85,77,68,30.16,30.06,22,15,33,0.00
2013-1-24,81.0,78.1,73.9,71.4,69.7,67.5,89,76,68,30.14,30.02,25,10,27,0.02
2013-1-25,81.5,77.6,72.9,73.1,70.4,65.6,94,79,64,30.12,30.03,30,11,36,0.01
2013-1-26,79.9,78.2,73.5,72.9,71.5,69.1,92,80,74,30.13,30.04,23,14,27,0.00
2013-1-27,81.8,78.9,74.0,72.9,71.5,68.3,88,78,72,30.15,30.05,34,10,41,0.02
2013-1-28,81.5,79.1,76.3,72.6,71.0,68.8,87,76,71,30.18,30.07,17,9,25,0.00
2013-1-29,80.4,78.3,77.1,71.5,69.2,66.5,79,74,66,30.14,30.04,20,12,27,0.00
2013-1-30,80.5,77.7,74.8,72.0,70.2,68.2,88,78,69,30.11,30.02,20,11,28,0.03
2013-1-31,79.0,77.3,74.1,73.3,71.1,69.5,90,81,75,30.13,30.04,30,16,37,0.01
2013-2-1,80.9,78.3,76.6,70.8,65.9,60.7,81,66,56,30.10,30.00,28,14,32,0.00
2013-2-2,79.3,78.0,74.7,69.7,65.4,57.9,76,65,50,30.08,30.00,21,14,28,0.00
2013-2-3,79.0,77.1,73.7,66.9,64.6,61.0,78,65,56,30.08,29.94,23,10,28,0.00
2013-2-4,81.0,77.4,71.7,67.7,63.9,57.3,73,63,51,30.05,29.95,19,8,24,0.00
2013-2-5,79.0,76.5,70.9,70.1,67.0,63.3,88,73,62,30.08,29.98,27,14,33,0.00
2013-2-6,79.5,77.8,74.3,71.6,69.6,66.3,83,76,70,30.07,29.97,25,14,34,0.00
2013-2-7,79.8,78.3,76.1,73.0,70.5,68.0,83,77,72,30.03,29.94,22,13,27,0.00
2013-2-8,79.3,78.0,75.5,71.3,69.6,66.6,80,76,70,30.06,29.96,23,15,33,0.01
2013-2-9,79.2,78.2,76.5,71.2,69.4,66.9,81,74,70,30.06,29.97,21,12,26,0.00
2013-2-10,81.1,78.5,76.8,70.7,69.4,67.7,79,74,66,30.10,29.99,18,9,21,0.00
2013-2-11,81.2,77.6,71.6,71.0,69.7,67.1,91,77,68,30.11,30.03,23,14,34,0.01
2013-2-12,78.9,77.2,72.2,69.6,67.4,64.9,91,72,64,30.11,30.03,25,14,32,0.00
2013-2-13,79.8,77.3,73.7,71.0,68.1,64.4,85,73,65,30.10,30.02,30,12,38,0.01
2013-2-14,78.8,77.7,76.1,72.1,70.4,68.4,83,78,71,30.12,30.02,24,14,27,0.00
2013-2-15,79.7,78.4,76.3,72.1,70.3,68.6,83,76,71,30.14,30.04,22,16,28,0.00
2013-2-16,80.0,78.3,75.1,71.2,69.0,64.4,83,73,60,30.10,29.98,27,14,33,0.00
2013-2-17,80.0,78.5,74.6,71.7,69.6,67.0,88,74,65,30.12,30.01,24,15,25,0.01
2013-2-18,81.2,78.9,77.1,73.3,70.9,68.6,83,77,72,30.14,30.04,23,14,30,0.00
2013-2-19,80.0,78.1,73.9,71.6,69.3,66.1,86,75,66,30.13,30.04,32,19,37,0.00
2013-2-20,78.9,77.7,72.5,72.4,70.4,66.7,88,78,74,30.11,29.97,29,18,36,0.00
2013-2-21,80.7,78.3,77.5,71.2,69.2,65.9,80,74,61,30.09,29.98,25,16,28,0.00
2013-2-22,80.9,78.4,76.8,72.2,70.7,69.2,82,77,72,30.09,29.98,17,10,24,0.00
2013-2-23,80.6,78.4,76.8,70.3,67.9,65.9,78,70,63,30.08,29.99,19,10,23,0.00
2013-2-24,80.0,77.8,76.6,70.1,68.9,66.8,77,74,70,30.08,29.97,20,11,23,0.00
2013-2-25,78.7,77.7,75.5,70.8,69.4,67.7,82,76,71,30.05,29.95,21,13,24,0.00
2013-2-26,78.5,77.3,75.9,72.3,70.2,67.9,87,79,73,30.09,30.00,25,13,28,0.00
2013-2-27,78.6,77.8,77.0,70.8,68.7,64.9,80,74,63,30.10,30.00,26,15,28,0.00
2013-2-28,78.5,77.3,76.3,68.3,67.2,65.8,75,71,66,30.08,29.95,18,11,22,0.00
2013-3-1,78.8,77.2,76.0,67.0,64.1,61.7,72,64,57,30.02,29.92,12,5,16,0.00
2013-3-2,79.4,77.8,75.8,71.1,67.3,62.8,79,70,63,30.01,29.90,13,5,19,0.00
2013-3-3,80.3,78.9,77.5,74.1,72.6,71.0,86,81,76,30.03,29.92,21,11,27,0.00
2013-3-4,80.5,78.7,76.8,74.0,72.6,70.7,87,82,76,30.08,29.97,10,4,13,0.00
2013-3-5,81.1,77.2,74.7,73.4,71.9,70.9,90,84,74,30.08,29.99,22,6,22,0.15
2013-3-6,80.7,76.6,73.3,72.8,71.0,69.3,90,83,73,30.09,30.00,18,9,20,0.04
2013-3-7,80.6,78.5,76.9,73.0,71.9,70.7,85,80,72,30.08,29.97,16,5,18,0.00
2013-3-8,80.2,77.1,73.2,73.6,71.7,69.4,91,84,77,30.07,29.97,8,2,15,0.75
2013-3-9,81.1,77.4,73.5,72.5,70.1,67.9,90,79,70,30.04,29.95,14,4,18,0.29
2013-3-10,82.4,78.0,74.8,68.6,66.3,63.5,79,68,54,30.01,29.93,15,5,18,0.00
2013-3-11,80.6,77.2,74.9,66.0,63.0,60.2,69,62,51,30.02,29.92,15,7,18,0.00
2013-3-12,79.7,77.2,75.6,65.6,61.3,56.3,69,58,46,30.08,29.96,19,9,23,0.00
2013-3-13,80.4,77.2,75.2,65.1,61.2,57.1,66,58,47,30.06,29.97,18,9,23,0.00
2013-3-14,80.3,77.0,75.3,66.7,61.1,57.6,72,58,51,30.04,29.92,21,7,23,0.00
2013-3-15,80.5,77.8,75.2,68.0,65.7,62.9,74,67,56,30.03,29.93,14,6,17,0.00
2013-3-16,81.4,78.6,76.9,66.3,64.2,60.4,69,62,50,30.07,29.97,13,7,18,0.00
2013-3-17,79.4,76.6,70.8,70.6,67.6,64.1,92,74,64,30.12,30.00,23,11,29,0.08
2013-3-18,79.7,77.6,75.7,71.0,69.2,67.0,82,75,69,30.11,30.02,25,13,29,0.01
2013-3-19,79.0,77.8,76.2,71.6,70.1,68.4,81,77,72,30.06,29.95,25,18,28,0.00
2013-3-20,79.2,78.1,77.1,71.6,70.0,68.1,81,76,72,30.01,29.91,19,13,24,0.00
2013-3-21,80.1,78.7,77.2,75.0,72.0,68.3,88,80,72,30.01,29.90,19,9,22,0.00
2013-3-22,80.7,79.5,78.3,75.4,74.6,73.4,88,85,81,30.07,29.94,16,7,19,0.00
2013-3-23,81.4,79.4,78.3,75.4,73.7,72.3,88,83,78,30.09,29.99,14,9,22,0.00
2013-3-24,81.0,79.0,77.9,73.9,72.3,71.3,84,80,75,30.06,29.94,18,10,21,0.00
2013-3-25,80.2,79.1,78.0,74.5,72.1,69.5,86,79,73,30.03,29.92,20,12,23,0.00
2013-3-26,80.7,79.3,76.5,74.2,72.6,69.8,86,80,73,30.08,29.97,24,9,27,0.00
2013-3-27,80.6,77.9,73.2,74.0,72.5,70.7,94,84,77,30.09,29.97,15,6,20,0.35
2013-3-28,80.6,79.1,76.8,73.9,72.8,71.2,89,81,76,30.06,29.97,12,5,14,0.00
2013-3-29,82.2,79.8,78.1,72.8,71.3,69.6,79,76,71,30.11,29.99,16,8,20,0.00
2013-3-30,79.1,76.7,72.7,73.1,71.0,69.4,93,83,75,30.15,30.04,29,15,32,0.05
2013-3-31,80.1,78.3,74.8,73.8,72.3,70.5,90,82,76,30.16,30.07,26,16,31,0.00
2013-4-1,80.6,79.3,76.9,73.4,72.0,70.7,85,79,73,30.16,30.06,29,21,31,0.00
2013-4-2,81.3,80.0,77.9,73.8,72.1,69.3,84,77,69,30.13,30.01,29,14,34,0.00
2013-4-3,80.6,79.2,78.7,73.6,72.7,71.6,84,81,76,30.13,30.03,18,11,21,0.00
2013-4-4,81.8,79.3,77.1,73.0,71.5,69.1,86,77,69,30.13,30.03,22,14,26,0.00
2013-4-5,82.2,79.2,76.9,74.9,72.6,69.5,91,80,74,30.10,29.98,25,14,28,0.03
2013-4-6,80.9,79.7,78.2,74.8,73.7,72.5,88,82,76,30.11,30.00,24,15,27,0.00
2013-4-7,81.5,78.9,74.6,75.0,73.6,71.3,91,84,73,30.09,29.98,18,10,34,0.01
2013-4-8,80.9,79.6,75.0,74.9,73.3,68.8,89,81,77,30.09,29.98,22,14,29,0.00
2013-4-9,81.2,79.4,75.9,75.0,72.6,70.5,90,80,75,30.10,29.99,20,13,26,0.02
2013-4-10,80.2,79.1,77.3,72.8,70.7,68.3,84,76,70,30.07,29.97,22,14,28,0.01
2013-4-11,80.4,79.1,78.0,71.7,69.0,65.2,78,71,63,30.07,29.97,24,17,27,0.00
2013-4-12,82.2,79.5,78.1,73.4,71.7,69.7,84,77,72,30.06,29.97,25,15,28,0.00
2013-4-13,80.1,78.8,75.3,73.9,72.9,71.8,89,82,79,30.06,29.97,28,18,32,0.02
2013-4-14,80.8,79.7,78.6,74.0,72.3,70.7,85,78,74,30.07,29.99,31,24,31,0.00
2013-4-15,80.5,79.7,78.8,73.5,72.2,70.4,82,78,72,30.09,30.00,30,24,30,0.00
2013-4-16,80.4,78.3,73.0,74.4,72.7,69.5,90,83,77,30.07,29.98,34,20,34,0.03
2013-4-17,80.0,77.9,71.9,72.8,70.6,67.1,92,78,65,30.07,29.97,24,16,32,0.01
2013-4-18,81.3,79.2,77.0,73.7,71.0,68.3,84,76,68,30.06,29.98,29,17,33,0.00
2013-4-19,81.0,78.8,73.7,72.6,71.4,68.3,90,78,70,30.11,30.00,30,16,39,0.02
2013-4-20,81.0,79.0,78.1,72.3,70.7,68.4,82,76,66,30.10,30.02,31,19,35,0.00
2013-4-21,80.8,78.5,77.3,70.2,67.0,63.0,77,68,57,30.08,29.99,23,13,30,0.00
2013-4-22,81.3,78.5,76.5,70.1,68.0,64.8,76,70,66,30.05,29.95,23,11,27,0.00
2013-4-23,80.1,77.8,76.0,70.1,68.8,67.6,79,74,70,30.05,29.97,22,15,27,0.00